Αρχική σελίδα
METAR-TAF:

METAR-TAF

Αεροδρόμια :

Paraguaná, Βενεζουέλα

γεωγραφικό πλάτος: 11-47N, γεωγραφικό μήκος: 070-09W, υψόμετρο: 23 μ

METAR: λείπει

Χρόνος: 23:41 (03:41 UTC)

Πρόγνωση Καιρού

Η αναφορά έγινε 5 ώρες και 41 λεπτά πριν, στις 22:00 UTC
Η πρόγνωση ισχύει από τις 23 στις 00 UTC έως τις 24 στις 00 UTC
Άνεμος 11 kt από Α
Ορατότητα 10 χλμ και άνω
Διάσπαρτα νέφη σε ύψος 1300 πόδια
Προσωρινά
από 23 στις 00 UTC έως τις 23 στις 04 UTC
Άνεμος 8 kt από Α/BA
Ορατότητα: 8000 μ
Αρκετά νέφη σε ύψος 1300 πόδια, Σωρειτομελανίτες.
καταιγίδα, Ψιλόβροχο,

TAF: SVJC 222200Z 2300/2400 09011KT 9999 SCT013 TX35/2219Z TN24/2308Z TEMPO 2300/2304 07008KT 8000 TSDZ BKN013CB

Μετεωρολογικές αναφορές και προγνώσεις για περισσότερα από 4000 αεροδρόμια (δελτία METAR και TAF).

Οι διαθέσιμοι σταθμοί απεικονίζονται στο χάρτη με κίτρινες και κόκκινες κουκκίδες.

Μετακινήστε το ποντίκι πάνω από τις κουκκίδες για να δείτε το όνομα του σταθμού.

Στη συνέχεια, κάντε κλικ για να δείτε τις μετεωρολογικές αναφορές και τις προγνώσεις καιρού.

Για να αλλάξετε το χάρτη: κάντε κλικ στα πράσινα κουμπιά με τον μαύρο σταυρό για να ζουμάρετε, στο πράσινο κουμπί με την παύλα για να αφαιρέσετε το ζουμ ή στα πράσινα βέλη για να αντιπαραβάλλετε χάρτες.


METAR-TAF: